sensor_id;sensor_type;location;lat;lon;timestamp;P1;durP1;ratioP1;P2;durP2;ratioP2
64395;SDS011;50717;53.360;6.290;2022-09-09T00:02:20;22.63;;;13.98;;
64395;SDS011;50717;53.360;6.290;2022-09-09T00:04:56;19.88;;;12.88;;
64395;SDS011;50717;53.360;6.290;2022-09-09T00:07:48;23.60;;;13.02;;
64395;SDS011;50717;53.360;6.290;2022-09-09T00:12:51;20.98;;;12.88;;
64395;SDS011;50717;53.360;6.290;2022-09-09T00:15:26;19.42;;;12.40;;
64395;SDS011;50717;53.360;6.290;2022-09-09T00:23:37;15.82;;;11.80;;
64395;SDS011;50717;53.360;6.290;2022-09-09T00:26:09;22.10;;;12.27;;
64395;SDS011;50717;53.360;6.290;2022-09-09T00:29:15;21.77;;;12.48;;
64395;SDS011;50717;53.360;6.290;2022-09-09T00:32:11;18.77;;;12.50;;
64395;SDS011;50717;53.360;6.290;2022-09-09T00:34:42;21.33;;;11.80;;
64395;SDS011;50717;53.360;6.290;2022-09-09T00:37:16;23.02;;;11.77;;
64395;SDS011;50717;53.360;6.290;2022-09-09T00:39:43;17.20;;;10.77;;
64395;SDS011;50717;53.360;6.290;2022-09-09T00:44:44;19.40;;;11.45;;
64395;SDS011;50717;53.360;6.290;2022-09-09T00:47:50;21.30;;;11.32;;
64395;SDS011;50717;53.360;6.290;2022-09-09T00:50:21;18.60;;;11.43;;
64395;SDS011;50717;53.360;6.290;2022-09-09T00:58:36;22.50;;;12.10;;
64395;SDS011;50717;53.360;6.290;2022-09-09T01:03:38;22.33;;;12.95;;
64395;SDS011;50717;53.360;6.290;2022-09-09T01:19:53;16.88;;;12.32;;
64395;SDS011;50717;53.360;6.290;2022-09-09T01:28:26;22.50;;;13.30;;
64395;SDS011;50717;53.360;6.290;2022-09-09T01:30:53;17.15;;;13.23;;
64395;SDS011;50717;53.360;6.290;2022-09-09T01:33:20;21.58;;;13.93;;
64395;SDS011;50717;53.360;6.290;2022-09-09T01:38:41;18.80;;;13.48;;
64395;SDS011;50717;53.360;6.290;2022-09-09T01:41:07;24.35;;;14.00;;
64395;SDS011;50717;53.360;6.290;2022-09-09T01:43:32;20.27;;;14.05;;
64395;SDS011;50717;53.360;6.290;2022-09-09T01:45:59;23.38;;;14.25;;
64395;SDS011;50717;53.360;6.290;2022-09-09T01:48:27;20.38;;;13.40;;
64395;SDS011;50717;53.360;6.290;2022-09-09T01:50:53;24.30;;;14.18;;
64395;SDS011;50717;53.360;6.290;2022-09-09T01:53:19;24.77;;;14.90;;
64395;SDS011;50717;53.360;6.290;2022-09-09T01:58:32;22.67;;;14.13;;
64395;SDS011;50717;53.360;6.290;2022-09-09T02:04:02;21.30;;;15.18;;
64395;SDS011;50717;53.360;6.290;2022-09-09T02:06:40;21.80;;;14.43;;
64395;SDS011;50717;53.360;6.290;2022-09-09T02:09:07;26.67;;;14.73;;
64395;SDS011;50717;53.360;6.290;2022-09-09T02:11:35;23.08;;;14.93;;
64395;SDS011;50717;53.360;6.290;2022-09-09T02:14:05;23.65;;;14.35;;
64395;SDS011;50717;53.360;6.290;2022-09-09T02:16:38;18.80;;;14.00;;
64395;SDS011;50717;53.360;6.290;2022-09-09T02:21:50;19.00;;;14.43;;
64395;SDS011;50717;53.360;6.290;2022-09-09T02:24:20;22.30;;;14.90;;
64395;SDS011;50717;53.360;6.290;2022-09-09T02:26:48;21.35;;;13.45;;
64395;SDS011;50717;53.360;6.290;2022-09-09T02:29:19;25.23;;;14.32;;
64395;SDS011;50717;53.360;6.290;2022-09-09T02:31:47;21.20;;;14.48;;
64395;SDS011;50717;53.360;6.290;2022-09-09T02:34:16;20.30;;;13.60;;
64395;SDS011;50717;53.360;6.290;2022-09-09T02:36:44;28.40;;;14.07;;
64395;SDS011;50717;53.360;6.290;2022-09-09T02:39:12;22.77;;;14.65;;
64395;SDS011;50717;53.360;6.290;2022-09-09T02:41:40;27.05;;;14.60;;
64395;SDS011;50717;53.360;6.290;2022-09-09T02:44:24;19.40;;;13.65;;
64395;SDS011;50717;53.360;6.290;2022-09-09T02:46:58;22.67;;;13.27;;
64395;SDS011;50717;53.360;6.290;2022-09-09T02:57:55;22.63;;;14.20;;
64395;SDS011;50717;53.360;6.290;2022-09-09T03:02:51;19.40;;;12.50;;
64395;SDS011;50717;53.360;6.290;2022-09-09T03:05:17;20.38;;;14.20;;
64395;SDS011;50717;53.360;6.290;2022-09-09T03:07:42;21.98;;;14.23;;
64395;SDS011;50717;53.360;6.290;2022-09-09T03:10:08;22.85;;;13.90;;
64395;SDS011;50717;53.360;6.290;2022-09-09T03:12:35;20.77;;;13.90;;
64395;SDS011;50717;53.360;6.290;2022-09-09T03:15:01;19.75;;;13.15;;
64395;SDS011;50717;53.360;6.290;2022-09-09T03:17:27;20.10;;;13.88;;
64395;SDS011;50717;53.360;6.290;2022-09-09T03:19:53;23.38;;;14.23;;
64395;SDS011;50717;53.360;6.290;2022-09-09T03:22:20;23.98;;;14.35;;
64395;SDS011;50717;53.360;6.290;2022-09-09T03:24:46;25.90;;;15.30;;
64395;SDS011;50717;53.360;6.290;2022-09-09T03:27:12;23.08;;;14.85;;
64395;SDS011;50717;53.360;6.290;2022-09-09T03:29:39;26.70;;;15.23;;
64395;SDS011;50717;53.360;6.290;2022-09-09T03:32:05;25.70;;;15.70;;
64395;SDS011;50717;53.360;6.290;2022-09-09T03:34:31;20.05;;;15.05;;
64395;SDS011;50717;53.360;6.290;2022-09-09T03:36:56;23.98;;;14.77;;
64395;SDS011;50717;53.360;6.290;2022-09-09T03:39:22;26.30;;;15.88;;
64395;SDS011;50717;53.360;6.290;2022-09-09T03:41:48;21.10;;;14.15;;
64395;SDS011;50717;53.360;6.290;2022-09-09T03:46:39;20.27;;;13.82;;
64395;SDS011;50717;53.360;6.290;2022-09-09T03:49:05;24.52;;;14.40;;
64395;SDS011;50717;53.360;6.290;2022-09-09T03:51:31;24.23;;;13.95;;
64395;SDS011;50717;53.360;6.290;2022-09-09T03:53:57;26.17;;;14.30;;
64395;SDS011;50717;53.360;6.290;2022-09-09T03:56:23;27.42;;;15.98;;
64395;SDS011;50717;53.360;6.290;2022-09-09T03:58:49;21.30;;;15.32;;
64395;SDS011;50717;53.360;6.290;2022-09-09T04:01:15;26.73;;;15.35;;
64395;SDS011;50717;53.360;6.290;2022-09-09T04:03:42;24.13;;;16.48;;
64395;SDS011;50717;53.360;6.290;2022-09-09T04:06:10;25.38;;;16.15;;
64395;SDS011;50717;53.360;6.290;2022-09-09T04:08:38;26.58;;;16.13;;
64395;SDS011;50717;53.360;6.290;2022-09-09T04:11:05;25.05;;;17.55;;
64395;SDS011;50717;53.360;6.290;2022-09-09T04:13:34;26.63;;;16.13;;
64395;SDS011;50717;53.360;6.290;2022-09-09T04:16:02;29.27;;;16.65;;
64395;SDS011;50717;53.360;6.290;2022-09-09T04:18:29;32.97;;;17.80;;
64395;SDS011;50717;53.360;6.290;2022-09-09T04:23:22;34.75;;;18.48;;
64395;SDS011;50717;53.360;6.290;2022-09-09T04:25:53;27.08;;;17.40;;
64395;SDS011;50717;53.360;6.290;2022-09-09T04:28:21;34.80;;;18.77;;
64395;SDS011;50717;53.360;6.290;2022-09-09T04:30:48;32.17;;;18.92;;
64395;SDS011;50717;53.360;6.290;2022-09-09T04:33:14;34.38;;;18.10;;
64395;SDS011;50717;53.360;6.290;2022-09-09T04:38:09;28.13;;;17.02;;
64395;SDS011;50717;53.360;6.290;2022-09-09T04:40:35;31.63;;;18.00;;
64395;SDS011;50717;53.360;6.290;2022-09-09T04:43:01;33.80;;;17.60;;
64395;SDS011;50717;53.360;6.290;2022-09-09T04:45:30;33.17;;;17.33;;
64395;SDS011;50717;53.360;6.290;2022-09-09T04:47:56;33.20;;;18.33;;
64395;SDS011;50717;53.360;6.290;2022-09-09T04:52:47;28.55;;;16.38;;
64395;SDS011;50717;53.360;6.290;2022-09-09T04:55:13;26.75;;;16.73;;
64395;SDS011;50717;53.360;6.290;2022-09-09T04:57:39;32.92;;;17.42;;
64395;SDS011;50717;53.360;6.290;2022-09-09T05:02:31;28.67;;;15.75;;
64395;SDS011;50717;53.360;6.290;2022-09-09T05:07:23;31.13;;;15.38;;
64395;SDS011;50717;53.360;6.290;2022-09-09T05:09:51;27.35;;;14.77;;
64395;SDS011;50717;53.360;6.290;2022-09-09T05:12:17;25.63;;;14.60;;
64395;SDS011;50717;53.360;6.290;2022-09-09T05:14:43;27.27;;;14.32;;
64395;SDS011;50717;53.360;6.290;2022-09-09T05:17:08;27.35;;;14.35;;
64395;SDS011;50717;53.360;6.290;2022-09-09T05:19:35;26.35;;;15.63;;
64395;SDS011;50717;53.360;6.290;2022-09-09T05:22:01;26.95;;;14.50;;
64395;SDS011;50717;53.360;6.290;2022-09-09T05:24:27;24.95;;;14.75;;
64395;SDS011;50717;53.360;6.290;2022-09-09T05:26:53;28.02;;;15.25;;
64395;SDS011;50717;53.360;6.290;2022-09-09T05:31:45;26.63;;;14.38;;
64395;SDS011;50717;53.360;6.290;2022-09-09T05:34:12;27.17;;;14.68;;
64395;SDS011;50717;53.360;6.290;2022-09-09T05:36:37;24.92;;;13.75;;
64395;SDS011;50717;53.360;6.290;2022-09-09T05:39:03;26.70;;;14.25;;
64395;SDS011;50717;53.360;6.290;2022-09-09T05:43:56;23.27;;;13.00;;
64395;SDS011;50717;53.360;6.290;2022-09-09T05:48:49;24.15;;;13.82;;
64395;SDS011;50717;53.360;6.290;2022-09-09T05:51:17;22.60;;;14.52;;
64395;SDS011;50717;53.360;6.290;2022-09-09T05:53:46;20.85;;;13.52;;
64395;SDS011;50717;53.360;6.290;2022-09-09T05:58:39;24.27;;;13.85;;
64395;SDS011;50717;53.360;6.290;2022-09-09T06:01:13;22.73;;;13.00;;
64395;SDS011;50717;53.360;6.290;2022-09-09T06:03:39;27.35;;;15.07;;
64395;SDS011;50717;53.360;6.290;2022-09-09T06:06:07;25.50;;;14.57;;
64395;SDS011;50717;53.360;6.290;2022-09-09T06:08:35;29.45;;;14.95;;
64395;SDS011;50717;53.360;6.290;2022-09-09T06:13:31;22.35;;;14.32;;
64395;SDS011;50717;53.360;6.290;2022-09-09T06:15:57;26.17;;;14.93;;
64395;SDS011;50717;53.360;6.290;2022-09-09T06:18:23;26.85;;;15.73;;
64395;SDS011;50717;53.360;6.290;2022-09-09T06:20:57;24.17;;;14.95;;
64395;SDS011;50717;53.360;6.290;2022-09-09T06:23:28;25.13;;;15.27;;
64395;SDS011;50717;53.360;6.290;2022-09-09T06:26:04;35.30;;;16.13;;
64395;SDS011;50717;53.360;6.290;2022-09-09T06:28:33;26.13;;;15.23;;
64395;SDS011;50717;53.360;6.290;2022-09-09T06:31:03;29.55;;;15.95;;
64395;SDS011;50717;53.360;6.290;2022-09-09T06:33:32;26.60;;;15.02;;
64395;SDS011;50717;53.360;6.290;2022-09-09T06:36:05;26.35;;;16.20;;
64395;SDS011;50717;53.360;6.290;2022-09-09T06:38:31;23.42;;;14.95;;
64395;SDS011;50717;53.360;6.290;2022-09-09T06:40:57;29.75;;;14.75;;
64395;SDS011;50717;53.360;6.290;2022-09-09T06:43:24;31.65;;;16.20;;
64395;SDS011;50717;53.360;6.290;2022-09-09T06:45:57;27.98;;;16.55;;
64395;SDS011;50717;53.360;6.290;2022-09-09T06:48:28;26.40;;;16.52;;
64395;SDS011;50717;53.360;6.290;2022-09-09T06:51:04;22.25;;;14.88;;
64395;SDS011;50717;53.360;6.290;2022-09-09T06:53:31;28.35;;;16.80;;
64395;SDS011;50717;53.360;6.290;2022-09-09T06:55:59;24.30;;;16.15;;
64395;SDS011;50717;53.360;6.290;2022-09-09T06:58:42;29.77;;;16.38;;
64395;SDS011;50717;53.360;6.290;2022-09-09T07:01:10;29.65;;;16.85;;
64395;SDS011;50717;53.360;6.290;2022-09-09T07:03:40;26.00;;;16.65;;
64395;SDS011;50717;53.360;6.290;2022-09-09T07:06:08;24.52;;;15.52;;
64395;SDS011;50717;53.360;6.290;2022-09-09T07:08:40;23.40;;;14.77;;
64395;SDS011;50717;53.360;6.290;2022-09-09T07:11:07;25.17;;;15.73;;
64395;SDS011;50717;53.360;6.290;2022-09-09T07:13:34;23.85;;;15.00;;
64395;SDS011;50717;53.360;6.290;2022-09-09T07:16:03;25.35;;;15.32;;
64395;SDS011;50717;53.360;6.290;2022-09-09T07:18:31;22.67;;;14.65;;
64395;SDS011;50717;53.360;6.290;2022-09-09T07:20:56;25.50;;;14.23;;
64395;SDS011;50717;53.360;6.290;2022-09-09T07:25:48;21.70;;;13.18;;
64395;SDS011;50717;53.360;6.290;2022-09-09T07:28:15;20.15;;;12.98;;
64395;SDS011;50717;53.360;6.290;2022-09-09T07:30:42;20.27;;;12.45;;
64395;SDS011;50717;53.360;6.290;2022-09-09T07:35:34;24.15;;;13.43;;
64395;SDS011;50717;53.360;6.290;2022-09-09T07:38:02;20.98;;;13.07;;
64395;SDS011;50717;53.360;6.290;2022-09-09T07:40:31;21.65;;;12.60;;
64395;SDS011;50717;53.360;6.290;2022-09-09T07:42:58;20.63;;;12.32;;
64395;SDS011;50717;53.360;6.290;2022-09-09T07:47:53;20.25;;;11.77;;
64395;SDS011;50717;53.360;6.290;2022-09-09T07:50:21;16.45;;;11.15;;
64395;SDS011;50717;53.360;6.290;2022-09-09T07:55:12;16.45;;;11.73;;
64395;SDS011;50717;53.360;6.290;2022-09-09T08:00:03;18.17;;;10.95;;
64395;SDS011;50717;53.360;6.290;2022-09-09T08:02:30;16.27;;;10.82;;
64395;SDS011;50717;53.360;6.290;2022-09-09T08:07:21;13.27;;;9.27;;
64395;SDS011;50717;53.360;6.290;2022-09-09T08:12:13;14.50;;;9.50;;
64395;SDS011;50717;53.360;6.290;2022-09-09T08:17:05;16.15;;;9.52;;
64395;SDS011;50717;53.360;6.290;2022-09-09T08:21:59;14.73;;;10.23;;
64395;SDS011;50717;53.360;6.290;2022-09-09T08:24:26;14.05;;;9.68;;
64395;SDS011;50717;53.360;6.290;2022-09-09T08:29:18;26.30;;;9.65;;
64395;SDS011;50717;53.360;6.290;2022-09-09T08:34:19;15.50;;;9.50;;
64395;SDS011;50717;53.360;6.290;2022-09-09T08:36:46;14.52;;;9.95;;
64395;SDS011;50717;53.360;6.290;2022-09-09T08:39:13;17.52;;;9.10;;
64395;SDS011;50717;53.360;6.290;2022-09-09T08:44:36;12.35;;;8.27;;
64395;SDS011;50717;53.360;6.290;2022-09-09T08:52:24;10.55;;;8.05;;
64395;SDS011;50717;53.360;6.290;2022-09-09T08:54:55;12.38;;;8.30;;
64395;SDS011;50717;53.360;6.290;2022-09-09T08:57:28;10.70;;;7.47;;
64395;SDS011;50717;53.360;6.290;2022-09-09T08:59:56;13.55;;;7.47;;
64395;SDS011;50717;53.360;6.290;2022-09-09T09:05:17;14.07;;;7.40;;
64395;SDS011;50717;53.360;6.290;2022-09-09T09:07:56;9.57;;;6.95;;
64395;SDS011;50717;53.360;6.290;2022-09-09T09:10:34;9.88;;;6.35;;
64395;SDS011;50717;53.360;6.290;2022-09-09T09:13:04;13.45;;;7.40;;
64395;SDS011;50717;53.360;6.290;2022-09-09T09:15:54;8.45;;;6.05;;
64395;SDS011;50717;53.360;6.290;2022-09-09T09:18:23;12.02;;;7.13;;
64395;SDS011;50717;53.360;6.290;2022-09-09T09:23:24;10.90;;;6.35;;
64395;SDS011;50717;53.360;6.290;2022-09-09T09:25:55;9.27;;;6.38;;
64395;SDS011;50717;53.360;6.290;2022-09-09T09:28:25;11.68;;;6.80;;
64395;SDS011;50717;53.360;6.290;2022-09-09T09:30:58;12.20;;;6.82;;
64395;SDS011;50717;53.360;6.290;2022-09-09T09:33:33;9.82;;;6.85;;
64395;SDS011;50717;53.360;6.290;2022-09-09T09:36:11;10.63;;;6.35;;
64395;SDS011;50717;53.360;6.290;2022-09-09T09:38:40;12.82;;;6.53;;
64395;SDS011;50717;53.360;6.290;2022-09-09T09:41:28;10.32;;;5.93;;
64395;SDS011;50717;53.360;6.290;2022-09-09T09:43:56;9.02;;;5.68;;
64395;SDS011;50717;53.360;6.290;2022-09-09T09:46:24;9.10;;;5.47;;
64395;SDS011;50717;53.360;6.290;2022-09-09T09:49:00;12.52;;;5.53;;
64395;SDS011;50717;53.360;6.290;2022-09-09T09:51:29;11.77;;;6.22;;
64395;SDS011;50717;53.360;6.290;2022-09-09T09:56:41;13.07;;;5.70;;
64395;SDS011;50717;53.360;6.290;2022-09-09T09:59:22;14.38;;;5.85;;
64395;SDS011;50717;53.360;6.290;2022-09-09T10:01:54;10.30;;;4.73;;
64395;SDS011;50717;53.360;6.290;2022-09-09T10:04:31;13.43;;;4.30;;
64395;SDS011;50717;53.360;6.290;2022-09-09T10:06:58;9.23;;;3.78;;
64395;SDS011;50717;53.360;6.290;2022-09-09T10:09:34;11.80;;;4.43;;
64395;SDS011;50717;53.360;6.290;2022-09-09T10:20:18;13.15;;;4.72;;
64395;SDS011;50717;53.360;6.290;2022-09-09T10:25:52;10.48;;;3.85;;
64395;SDS011;50717;53.360;6.290;2022-09-09T10:29:46;9.75;;;3.58;;
64395;SDS011;50717;53.360;6.290;2022-09-09T10:49:23;13.45;;;3.95;;
64395;SDS011;50717;53.360;6.290;2022-09-09T10:57:42;8.43;;;3.25;;
64395;SDS011;50717;53.360;6.290;2022-09-09T11:00:22;8.73;;;3.20;;
64395;SDS011;50717;53.360;6.290;2022-09-09T11:03:00;9.02;;;2.58;;
64395;SDS011;50717;53.360;6.290;2022-09-09T11:05:28;8.90;;;2.70;;
64395;SDS011;50717;53.360;6.290;2022-09-09T11:08:09;5.40;;;2.53;;
64395;SDS011;50717;53.360;6.290;2022-09-09T11:13:31;5.85;;;2.45;;
64395;SDS011;50717;53.360;6.290;2022-09-09T11:16:17;5.15;;;2.08;;
64395;SDS011;50717;53.360;6.290;2022-09-09T11:18:49;8.93;;;2.42;;
64395;SDS011;50717;53.360;6.290;2022-09-09T11:21:20;8.07;;;1.98;;
64395;SDS011;50717;53.360;6.290;2022-09-09T11:23:52;13.07;;;2.50;;
64395;SDS011;50717;53.360;6.290;2022-09-09T11:26:30;5.25;;;1.90;;
64395;SDS011;50717;53.360;6.290;2022-09-09T11:29:30;7.43;;;2.35;;
64395;SDS011;50717;53.360;6.290;2022-09-09T11:35:30;7.82;;;2.78;;
64395;SDS011;50717;53.360;6.290;2022-09-09T11:38:27;7.72;;;2.40;;
64395;SDS011;50717;53.360;6.290;2022-09-09T11:41:02;6.15;;;2.30;;
64395;SDS011;50717;53.360;6.290;2022-09-09T11:43:33;7.88;;;2.15;;
64395;SDS011;50717;53.360;6.290;2022-09-09T11:46:05;5.15;;;1.98;;
64395;SDS011;50717;53.360;6.290;2022-09-09T11:48:34;5.82;;;2.45;;
64395;SDS011;50717;53.360;6.290;2022-09-09T11:53:34;6.70;;;2.13;;
64395;SDS011;50717;53.360;6.290;2022-09-09T11:56:12;7.78;;;2.38;;
64395;SDS011;50717;53.360;6.290;2022-09-09T11:58:59;7.65;;;2.30;;
64395;SDS011;50717;53.360;6.290;2022-09-09T12:01:34;8.52;;;2.33;;
64395;SDS011;50717;53.360;6.290;2022-09-09T12:04:12;6.30;;;2.20;;
64395;SDS011;50717;53.360;6.290;2022-09-09T12:11:44;7.95;;;2.33;;
64395;SDS011;50717;53.360;6.290;2022-09-09T12:14:34;10.35;;;2.45;;
64395;SDS011;50717;53.360;6.290;2022-09-09T12:17:22;7.68;;;2.47;;
64395;SDS011;50717;53.360;6.290;2022-09-09T12:23:05;7.80;;;2.30;;
64395;SDS011;50717;53.360;6.290;2022-09-09T12:31:17;11.45;;;2.40;;
64395;SDS011;50717;53.360;6.290;2022-09-09T12:34:10;9.73;;;2.40;;
64395;SDS011;50717;53.360;6.290;2022-09-09T12:39:15;8.75;;;2.20;;
64395;SDS011;50717;53.360;6.290;2022-09-09T12:41:51;6.20;;;2.78;;
64395;SDS011;50717;53.360;6.290;2022-09-09T12:44:24;6.55;;;2.35;;
64395;SDS011;50717;53.360;6.290;2022-09-09T12:46:53;10.68;;;2.70;;
64395;SDS011;50717;53.360;6.290;2022-09-09T12:52:04;9.55;;;2.97;;
64395;SDS011;50717;53.360;6.290;2022-09-09T12:54:35;7.72;;;2.47;;
64395;SDS011;50717;53.360;6.290;2022-09-09T12:57:02;6.60;;;2.47;;
64395;SDS011;50717;53.360;6.290;2022-09-09T12:59:37;9.60;;;1.90;;
64395;SDS011;50717;53.360;6.290;2022-09-09T13:02:23;9.75;;;2.15;;
64395;SDS011;50717;53.360;6.290;2022-09-09T13:04:51;9.57;;;2.28;;
64395;SDS011;50717;53.360;6.290;2022-09-09T13:07:18;7.05;;;2.00;;
64395;SDS011;50717;53.360;6.290;2022-09-09T13:09:47;4.57;;;1.73;;
64395;SDS011;50717;53.360;6.290;2022-09-09T13:12:21;5.45;;;1.80;;
64395;SDS011;50717;53.360;6.290;2022-09-09T13:14:53;6.03;;;1.90;;
64395;SDS011;50717;53.360;6.290;2022-09-09T13:17:23;8.45;;;2.45;;
64395;SDS011;50717;53.360;6.290;2022-09-09T13:19:51;5.18;;;1.80;;
64395;SDS011;50717;53.360;6.290;2022-09-09T13:27:38;4.95;;;1.70;;
64395;SDS011;50717;53.360;6.290;2022-09-09T13:30:19;5.65;;;1.80;;
64395;SDS011;50717;53.360;6.290;2022-09-09T13:33:39;7.50;;;1.83;;
64395;SDS011;50717;53.360;6.290;2022-09-09T13:35:51;5.88;;;2.00;;
64395;SDS011;50717;53.360;6.290;2022-09-09T13:38:20;6.75;;;2.28;;
64395;SDS011;50717;53.360;6.290;2022-09-09T13:41:20;8.65;;;1.90;;
64395;SDS011;50717;53.360;6.290;2022-09-09T13:43:46;6.93;;;2.00;;
64395;SDS011;50717;53.360;6.290;2022-09-09T13:54:00;6.30;;;1.73;;
64395;SDS011;50717;53.360;6.290;2022-09-09T13:56:26;6.97;;;2.60;;
64395;SDS011;50717;53.360;6.290;2022-09-09T13:58:52;8.55;;;1.95;;
64395;SDS011;50717;53.360;6.290;2022-09-09T14:01:17;8.23;;;1.70;;
64395;SDS011;50717;53.360;6.290;2022-09-09T14:03:43;5.43;;;1.88;;
64395;SDS011;50717;53.360;6.290;2022-09-09T14:06:09;6.28;;;2.00;;
64395;SDS011;50717;53.360;6.290;2022-09-09T14:08:35;5.32;;;1.70;;
64395;SDS011;50717;53.360;6.290;2022-09-09T14:11:05;6.40;;;1.83;;
64395;SDS011;50717;53.360;6.290;2022-09-09T14:13:32;5.13;;;1.60;;
64395;SDS011;50717;53.360;6.290;2022-09-09T14:15:58;9.23;;;1.85;;
64395;SDS011;50717;53.360;6.290;2022-09-09T14:18:23;5.07;;;1.60;;
64395;SDS011;50717;53.360;6.290;2022-09-09T14:20:50;3.60;;;1.35;;
64395;SDS011;50717;53.360;6.290;2022-09-09T14:23:16;7.60;;;1.77;;
64395;SDS011;50717;53.360;6.290;2022-09-09T14:25:42;5.90;;;2.15;;
64395;SDS011;50717;53.360;6.290;2022-09-09T14:28:09;8.55;;;2.20;;
64395;SDS011;50717;53.360;6.290;2022-09-09T14:30:37;8.43;;;2.53;;
64395;SDS011;50717;53.360;6.290;2022-09-09T14:33:07;9.05;;;2.25;;
64395;SDS011;50717;53.360;6.290;2022-09-09T14:35:34;13.40;;;2.50;;
64395;SDS011;50717;53.360;6.290;2022-09-09T14:38:01;5.55;;;2.30;;
64395;SDS011;50717;53.360;6.290;2022-09-09T14:40:27;25.70;;;3.38;;
64395;SDS011;50717;53.360;6.290;2022-09-09T14:42:53;43.50;;;5.03;;
64395;SDS011;50717;53.360;6.290;2022-09-09T14:45:19;20.38;;;3.67;;
64395;SDS011;50717;53.360;6.290;2022-09-09T14:47:46;13.85;;;3.60;;
64395;SDS011;50717;53.360;6.290;2022-09-09T14:50:12;13.80;;;4.28;;
64395;SDS011;50717;53.360;6.290;2022-09-09T14:52:38;6.43;;;2.72;;
64395;SDS011;50717;53.360;6.290;2022-09-09T14:55:04;9.63;;;3.03;;
64395;SDS011;50717;53.360;6.290;2022-09-09T14:57:31;10.18;;;3.55;;
64395;SDS011;50717;53.360;6.290;2022-09-09T14:59:56;11.02;;;3.30;;
64395;SDS011;50717;53.360;6.290;2022-09-09T15:02:22;11.07;;;3.15;;
64395;SDS011;50717;53.360;6.290;2022-09-09T15:04:48;10.00;;;3.30;;
64395;SDS011;50717;53.360;6.290;2022-09-09T15:07:15;9.52;;;3.40;;
64395;SDS011;50717;53.360;6.290;2022-09-09T15:09:42;10.32;;;2.88;;
64395;SDS011;50717;53.360;6.290;2022-09-09T15:12:07;7.57;;;3.00;;
64395;SDS011;50717;53.360;6.290;2022-09-09T15:14:33;5.95;;;2.15;;
64395;SDS011;50717;53.360;6.290;2022-09-09T15:17:00;3.30;;;1.80;;
64395;SDS011;50717;53.360;6.290;2022-09-09T15:19:26;3.55;;;1.60;;
64395;SDS011;50717;53.360;6.290;2022-09-09T15:21:51;2.88;;;1.30;;
64395;SDS011;50717;53.360;6.290;2022-09-09T15:24:17;3.03;;;1.30;;
64395;SDS011;50717;53.360;6.290;2022-09-09T15:26:43;7.28;;;1.63;;
64395;SDS011;50717;53.360;6.290;2022-09-09T15:29:09;4.45;;;1.52;;
64395;SDS011;50717;53.360;6.290;2022-09-09T15:31:34;2.75;;;1.63;;
64395;SDS011;50717;53.360;6.290;2022-09-09T15:34:02;7.22;;;1.92;;
64395;SDS011;50717;53.360;6.290;2022-09-09T15:36:30;3.28;;;1.70;;
64395;SDS011;50717;53.360;6.290;2022-09-09T15:39:00;3.78;;;1.70;;
64395;SDS011;50717;53.360;6.290;2022-09-09T15:41:28;6.18;;;2.00;;
64395;SDS011;50717;53.360;6.290;2022-09-09T15:43:55;4.55;;;2.13;;
64395;SDS011;50717;53.360;6.290;2022-09-09T15:48:56;6.03;;;2.30;;
64395;SDS011;50717;53.360;6.290;2022-09-09T15:51:31;4.47;;;2.10;;
64395;SDS011;50717;53.360;6.290;2022-09-09T15:53:58;5.47;;;2.08;;
64395;SDS011;50717;53.360;6.290;2022-09-09T15:56:25;7.93;;;2.25;;
64395;SDS011;50717;53.360;6.290;2022-09-09T15:58:52;5.90;;;2.72;;
64395;SDS011;50717;53.360;6.290;2022-09-09T16:01:19;9.70;;;2.45;;
64395;SDS011;50717;53.360;6.290;2022-09-09T16:03:45;4.35;;;1.83;;
64395;SDS011;50717;53.360;6.290;2022-09-09T16:06:12;7.32;;;1.92;;
64395;SDS011;50717;53.360;6.290;2022-09-09T16:08:39;4.72;;;1.77;;
64395;SDS011;50717;53.360;6.290;2022-09-09T16:11:11;4.50;;;1.77;;
64395;SDS011;50717;53.360;6.290;2022-09-09T16:13:41;4.85;;;1.90;;
64395;SDS011;50717;53.360;6.290;2022-09-09T16:16:10;6.07;;;1.58;;
64395;SDS011;50717;53.360;6.290;2022-09-09T16:18:38;5.53;;;2.35;;
64395;SDS011;50717;53.360;6.290;2022-09-09T16:21:07;7.75;;;2.17;;
64395;SDS011;50717;53.360;6.290;2022-09-09T16:23:35;9.02;;;2.60;;
64395;SDS011;50717;53.360;6.290;2022-09-09T16:26:01;4.07;;;1.63;;
64395;SDS011;50717;53.360;6.290;2022-09-09T16:28:27;2.95;;;1.63;;
64395;SDS011;50717;53.360;6.290;2022-09-09T16:30:53;2.53;;;1.40;;
64395;SDS011;50717;53.360;6.290;2022-09-09T16:33:20;2.10;;;1.30;;
64395;SDS011;50717;53.360;6.290;2022-09-09T16:35:47;2.33;;;1.60;;
64395;SDS011;50717;53.360;6.290;2022-09-09T16:38:14;3.75;;;1.67;;
64395;SDS011;50717;53.360;6.290;2022-09-09T16:40:39;5.45;;;1.70;;
64395;SDS011;50717;53.360;6.290;2022-09-09T16:43:06;4.10;;;1.90;;
64395;SDS011;50717;53.360;6.290;2022-09-09T16:45:34;2.95;;;1.92;;
64395;SDS011;50717;53.360;6.290;2022-09-09T16:48:10;2.25;;;1.67;;
64395;SDS011;50717;53.360;6.290;2022-09-09T16:50:36;3.03;;;1.60;;
64395;SDS011;50717;53.360;6.290;2022-09-09T16:53:02;3.28;;;1.45;;
64395;SDS011;50717;53.360;6.290;2022-09-09T16:55:31;3.97;;;1.77;;
64395;SDS011;50717;53.360;6.290;2022-09-09T16:57:57;2.53;;;1.60;;
64395;SDS011;50717;53.360;6.290;2022-09-09T17:00:23;4.18;;;1.85;;
64395;SDS011;50717;53.360;6.290;2022-09-09T17:02:48;3.03;;;1.88;;
64395;SDS011;50717;53.360;6.290;2022-09-09T17:05:14;4.82;;;2.30;;
64395;SDS011;50717;53.360;6.290;2022-09-09T17:07:40;3.55;;;2.17;;
64395;SDS011;50717;53.360;6.290;2022-09-09T17:10:05;3.00;;;2.30;;
64395;SDS011;50717;53.360;6.290;2022-09-09T17:12:32;3.25;;;2.55;;
64395;SDS011;50717;53.360;6.290;2022-09-09T17:14:58;2.55;;;2.03;;
64395;SDS011;50717;53.360;6.290;2022-09-09T17:17:25;2.42;;;2.20;;
64395;SDS011;50717;53.360;6.290;2022-09-09T17:19:51;4.15;;;2.47;;
64395;SDS011;50717;53.360;6.290;2022-09-09T17:22:18;6.25;;;2.65;;
64395;SDS011;50717;53.360;6.290;2022-09-09T17:24:45;4.88;;;2.78;;
64395;SDS011;50717;53.360;6.290;2022-09-09T17:27:11;2.60;;;2.13;;
64395;SDS011;50717;53.360;6.290;2022-09-09T17:29:37;6.00;;;2.70;;
64395;SDS011;50717;53.360;6.290;2022-09-09T17:32:04;5.47;;;2.50;;
64395;SDS011;50717;53.360;6.290;2022-09-09T17:34:30;5.78;;;2.53;;
64395;SDS011;50717;53.360;6.290;2022-09-09T17:36:56;5.95;;;2.65;;
64395;SDS011;50717;53.360;6.290;2022-09-09T17:39:22;7.25;;;2.45;;
64395;SDS011;50717;53.360;6.290;2022-09-09T17:41:47;6.43;;;2.40;;
64395;SDS011;50717;53.360;6.290;2022-09-09T17:44:14;6.97;;;2.97;;
64395;SDS011;50717;53.360;6.290;2022-09-09T17:46:41;5.80;;;2.85;;
64395;SDS011;50717;53.360;6.290;2022-09-09T17:49:11;4.55;;;3.00;;
64395;SDS011;50717;53.360;6.290;2022-09-09T17:51:39;6.93;;;2.95;;
64395;SDS011;50717;53.360;6.290;2022-09-09T17:54:10;7.32;;;3.30;;
64395;SDS011;50717;53.360;6.290;2022-09-09T17:56:39;4.95;;;3.58;;
64395;SDS011;50717;53.360;6.290;2022-09-09T17:59:06;7.00;;;3.30;;
64395;SDS011;50717;53.360;6.290;2022-09-09T18:01:35;9.02;;;3.63;;
64395;SDS011;50717;53.360;6.290;2022-09-09T18:04:04;7.32;;;3.30;;
64395;SDS011;50717;53.360;6.290;2022-09-09T18:06:35;3.88;;;3.15;;
64395;SDS011;50717;53.360;6.290;2022-09-09T18:09:04;6.15;;;3.53;;
64395;SDS011;50717;53.360;6.290;2022-09-09T18:11:33;7.72;;;3.42;;
64395;SDS011;50717;53.360;6.290;2022-09-09T18:14:03;4.47;;;3.03;;
64395;SDS011;50717;53.360;6.290;2022-09-09T18:16:31;10.30;;;3.38;;
64395;SDS011;50717;53.360;6.290;2022-09-09T18:19:00;5.57;;;2.78;;